Time;durP1;ratioP1;P1;durP2;ratioP2;P2;SDS_P1;SDS_P2;PMS_P1;PMS_P2;Temp;Humidity;BMP_temperature;BMP_pressure;BME280_temperature;BME280_humidity;BME280_pressure;Samples;Min_cycle;Max_cycle;Signal;HPM_P1;HPM_P2
2021/12/19 00:00:39;;;;;;;1.23;0.60;;;30.40;99.90;;;;;;5055078;28;20182;-81
2021/12/19 00:03:32;;;;;;;2.45;0.80;;;30.30;99.90;;;;;;5048946;28;20186;-75
2021/12/19 00:08:50;;;;;;;4.20;0.90;;;30.00;99.90;;;;;;5052481;28;20643;-76
2021/12/19 00:11:22;;;;;;;0.82;0.60;;;29.90;99.90;;;;;;5051829;28;20545;-76
2021/12/19 00:13:53;;;;;;;1.48;0.70;;;29.90;99.90;;;;;;5054961;28;20213;-76
2021/12/19 00:16:24;;;;;;;1.83;0.70;;;29.90;99.90;;;;;;5054916;28;20182;-76
2021/12/19 00:18:57;;;;;;;0.75;0.60;;;29.90;99.90;;;;;;5054414;28;20186;-76
2021/12/19 00:21:28;;;;;;;3.65;0.70;;;29.90;99.90;;;;;;5060642;28;20197;-77
2021/12/19 00:23:59;;;;;;;3.00;0.70;;;29.90;99.90;;;;;;5051560;28;20202;-76
2021/12/19 00:26:29;;;;;;;2.25;0.68;;;30.00;99.90;;;;;;5052881;28;20641;-76
2021/12/19 00:29:01;;;;;;;1.83;0.70;;;30.10;99.90;;;;;;5053619;28;20259;-76
2021/12/19 00:31:32;;;;;;;2.42;0.85;;;30.00;99.90;;;;;;5053874;28;20189;-77
2021/12/19 00:34:05;;;;;;;2.40;0.70;;;30.10;99.90;;;;;;5054099;28;20240;-76
2021/12/19 00:36:36;;;;;;;1.85;0.68;;;30.10;99.90;;;;;;5055876;28;20240;-77
2021/12/19 00:39:07;;;;;;;2.00;0.77;;;30.10;99.90;;;;;;5054604;28;20239;-76
2021/12/19 00:41:37;;;;;;;1.15;0.75;;;30.10;99.90;;;;;;5052643;28;20194;-76
2021/12/19 00:44:14;;;;;;;1.67;0.85;;;30.20;99.90;;;;;;5054625;28;20201;-76
2021/12/19 00:46:50;;;;;;;2.05;0.85;;;30.40;99.90;;;;;;5054640;28;20196;-76
2021/12/19 00:49:24;;;;;;;1.77;0.70;;;30.50;99.90;;;;;;5054267;28;20245;-77
2021/12/19 00:51:55;;;;;;;1.98;0.77;;;30.50;99.90;;;;;;5047659;28;20272;-77
2021/12/19 00:54:25;;;;;;;1.20;0.75;;;30.70;99.90;;;;;;5051304;28;20220;-76
2021/12/19 00:56:56;;;;;;;1.25;0.80;;;30.80;99.90;;;;;;5054356;28;20634;-78
2021/12/19 00:59:27;;;;;;;0.60;0.60;;;30.90;99.90;;;;;;5054315;28;20190;-77
2021/12/19 01:01:57;;;;;;;0.73;0.70;;;31.00;99.90;;;;;;5045446;28;20204;-78
2021/12/19 01:04:30;;;;;;;3.13;0.80;;;31.10;99.90;;;;;;5053873;28;20271;-77
2021/12/19 01:07:01;;;;;;;2.38;0.75;;;31.20;99.90;;;;;;5045740;28;20194;-78
2021/12/19 01:09:32;;;;;;;1.13;0.80;;;31.40;99.90;;;;;;5053817;28;20320;-77
2021/12/19 01:12:02;;;;;;;1.50;1.00;;;31.40;99.90;;;;;;5053950;28;20528;-77
2021/12/19 01:14:33;;;;;;;4.30;0.73;;;31.30;99.90;;;;;;5053021;28;20212;-77
2021/12/19 01:17:04;;;;;;;1.67;0.82;;;31.20;99.90;;;;;;5053181;28;20186;-77
2021/12/19 01:19:37;;;;;;;2.28;0.80;;;31.30;99.90;;;;;;5053745;28;20186;-77
2021/12/19 01:22:08;;;;;;;2.08;0.80;;;31.20;99.90;;;;;;5052216;28;20200;-77
2021/12/19 01:24:39;;;;;;;1.27;0.80;;;31.40;99.90;;;;;;5052220;28;20247;-77
2021/12/19 01:27:10;;;;;;;1.55;0.60;;;31.70;99.90;;;;;;5049920;28;20249;-77
2021/12/19 01:29:40;;;;;;;1.13;0.70;;;32.00;99.90;;;;;;5048363;28;20707;-76
2021/12/19 01:32:11;;;;;;;1.70;0.60;;;32.10;99.90;;;;;;5050086;28;20565;-78
2021/12/19 01:34:46;;;;;;;1.08;0.60;;;32.40;99.90;;;;;;5048212;28;20558;-78
2021/12/19 01:37:17;;;;;;;2.55;0.75;;;32.50;99.90;;;;;;5050820;28;20562;-78
2021/12/19 01:39:48;;;;;;;1.50;0.50;;;32.60;99.90;;;;;;5047485;28;20200;-78
2021/12/19 01:42:20;;;;;;;0.98;0.60;;;32.60;99.90;;;;;;5053175;28;20574;-77
2021/12/19 01:44:51;;;;;;;1.35;0.50;;;32.60;99.90;;;;;;5053388;28;20216;-77
2021/12/19 01:47:21;;;;;;;1.83;0.60;;;32.60;99.90;;;;;;5052370;28;20201;-77
2021/12/19 01:49:55;;;;;;;1.90;0.57;;;32.50;99.90;;;;;;5052635;28;20642;-77
2021/12/19 01:52:30;;;;;;;1.48;0.70;;;32.70;99.90;;;;;;5052841;28;20222;-78
2021/12/19 01:55:01;;;;;;;4.05;0.73;;;32.80;99.90;;;;;;5052580;28;20279;-77
2021/12/19 01:57:31;;;;;;;2.85;1.20;;;32.70;99.90;;;;;;5052586;28;20194;-77
2021/12/19 02:00:02;;;;;;;1.60;0.60;;;32.70;99.90;;;;;;5052769;28;20186;-77
2021/12/19 02:02:33;;;;;;;1.13;0.60;;;32.50;99.90;;;;;;5051993;28;20185;-77
2021/12/19 02:05:06;;;;;;;1.33;0.43;;;32.40;99.90;;;;;;5051822;28;20229;-78
2021/12/19 02:07:37;;;;;;;2.05;0.50;;;32.30;99.90;;;;;;5052345;28;20193;-77
2021/12/19 02:10:09;;;;;;;3.55;0.50;;;32.30;99.90;;;;;;5043141;28;20586;-77
2021/12/19 02:12:41;;;;;;;0.95;0.43;;;32.20;99.90;;;;;;5052885;28;20190;-77
2021/12/19 02:15:16;;;;;;;1.45;0.40;;;32.30;99.90;;;;;;5044949;28;20210;-77
2021/12/19 02:17:47;;;;;;;2.03;0.60;;;32.30;99.90;;;;;;5049291;28;20189;-77
2021/12/19 02:20:21;;;;;;;0.63;0.50;;;32.30;99.90;;;;;;5045186;28;20194;-77
2021/12/19 02:22:52;;;;;;;3.10;0.68;;;32.40;99.90;;;;;;5052502;28;20189;-77
2021/12/19 02:25:23;;;;;;;2.15;0.60;;;32.40;99.90;;;;;;5051954;28;20245;-78
2021/12/19 02:27:53;;;;;;;1.48;0.60;;;32.30;99.90;;;;;;5051883;28;20192;-79
2021/12/19 02:30:24;;;;;;;1.00;0.50;;;32.30;99.90;;;;;;5044501;28;20193;-77
2021/12/19 02:32:55;;;;;;;0.70;0.38;;;32.30;99.90;;;;;;5052573;28;20319;-77
2021/12/19 02:35:32;;;;;;;2.65;0.60;;;32.30;99.90;;;;;;5051307;28;20241;-77
2021/12/19 02:38:34;;;;;;;0.63;0.50;;;32.30;99.90;;;;;;5052454;28;20235;-77
2021/12/19 02:49:33;;;;;;;1.02;0.50;;;32.90;99.90;;;;;;5054343;28;20204;-77
2021/12/19 02:52:13;;;;;;;0.93;0.40;;;32.90;99.90;;;;;;5056026;28;20185;-77
2021/12/19 02:54:44;;;;;;;0.93;0.50;;;33.00;99.90;;;;;;5055063;28;20217;-77
2021/12/19 02:57:15;;;;;;;0.95;0.60;;;33.30;99.90;;;;;;5060383;28;20653;-77
2021/12/19 02:59:46;;;;;;;2.63;0.60;;;33.40;99.90;;;;;;5056855;28;20232;-76
2021/12/19 03:02:16;;;;;;;1.35;0.50;;;33.40;99.90;;;;;;5055767;28;20189;-77
2021/12/19 03:04:56;;;;;;;1.83;0.50;;;33.40;99.90;;;;;;5055452;28;20699;-77
2021/12/19 03:07:29;;;;;;;1.33;0.60;;;33.40;99.90;;;;;;5055062;28;20197;-76
2021/12/19 03:10:23;;;;;;;2.03;0.60;;;33.40;99.90;;;;;;5055454;28;20278;-76
2021/12/19 03:13:03;;;;;;;1.98;0.60;;;33.50;99.90;;;;;;5054236;28;20189;-77
2021/12/19 03:18:20;;;;;;;0.80;0.57;;;33.90;99.90;;;;;;5048436;28;20679;-76
2021/12/19 03:20:51;;;;;;;2.10;0.50;;;34.10;99.90;;;;;;5054987;28;20583;-77
2021/12/19 03:23:24;;;;;;;3.63;0.50;;;34.20;99.90;;;;;;5055038;28;20190;-77
2021/12/19 03:25:55;;;;;;;0.35;0.30;;;34.10;99.90;;;;;;5052468;28;20185;-77
2021/12/19 03:28:25;;;;;;;1.30;0.40;;;34.20;99.90;;;;;;5059551;28;20192;-77
2021/12/19 03:30:56;;;;;;;0.85;0.43;;;34.30;99.90;;;;;;5055379;28;20186;-79
2021/12/19 03:33:27;;;;;;;1.65;0.90;;;34.40;99.90;;;;;;5051501;28;20198;-77
2021/12/19 03:35:58;;;;;;;3.28;0.73;;;34.10;99.90;;;;;;5050805;28;20592;-78
2021/12/19 03:38:30;;;;;;;1.95;0.60;;;34.00;99.90;;;;;;5050671;28;20672;-77
2021/12/19 03:41:14;;;;;;;2.67;1.05;;;33.90;99.90;;;;;;5047308;28;20243;-77
2021/12/19 03:43:45;;;;;;;1.30;0.60;;;33.80;99.90;;;;;;5053065;28;20549;-76
2021/12/19 03:46:17;;;;;;;0.50;0.40;;;33.60;99.90;;;;;;5054582;28;20197;-77
2021/12/19 03:48:47;;;;;;;1.58;0.50;;;33.50;99.90;;;;;;5055405;28;20190;-78
2021/12/19 03:51:18;;;;;;;1.60;0.60;;;33.50;99.90;;;;;;5054181;28;20193;-76
2021/12/19 03:53:51;;;;;;;1.60;0.50;;;33.40;99.90;;;;;;5047629;28;20197;-77
2021/12/19 03:56:21;;;;;;;2.15;0.60;;;33.50;99.90;;;;;;5054000;28;20209;-76
2021/12/19 03:58:53;;;;;;;0.88;0.52;;;33.50;99.90;;;;;;5047169;28;20182;-77
2021/12/19 04:01:24;;;;;;;1.20;0.50;;;33.60;99.90;;;;;;5054218;28;20664;-76
2021/12/19 04:03:56;;;;;;;1.30;0.60;;;33.60;99.90;;;;;;5047140;28;20213;-76
2021/12/19 04:06:27;;;;;;;1.75;0.50;;;33.50;99.90;;;;;;5054997;28;20197;-78
2021/12/19 04:09:00;;;;;;;1.58;0.43;;;33.60;99.90;;;;;;5054385;28;20728;-77
2021/12/19 04:11:30;;;;;;;3.15;0.73;;;33.60;99.90;;;;;;5052777;28;20202;-78
2021/12/19 04:14:01;;;;;;;1.98;0.40;;;33.50;99.90;;;;;;5048287;28;20243;-78
2021/12/19 04:16:32;;;;;;;0.60;0.38;;;33.30;99.90;;;;;;5050124;28;20711;-78
2021/12/19 04:19:03;;;;;;;1.05;0.70;;;33.00;99.90;;;;;;5054106;28;20201;-78
2021/12/19 04:21:33;;;;;;;2.08;0.65;;;32.80;99.90;;;;;;5050485;28;20279;-77
2021/12/19 04:24:06;;;;;;;3.33;0.50;;;32.40;99.90;;;;;;5052134;28;20683;-77
2021/12/19 04:26:37;;;;;;;1.52;0.57;;;32.10;99.90;;;;;;5054290;28;20193;-77
2021/12/19 04:29:08;;;;;;;1.23;0.60;;;32.00;99.90;;;;;;5054557;28;20197;-78
2021/12/19 04:31:40;;;;;;;1.35;0.55;;;31.90;99.90;;;;;;5051287;28;20193;-76
2021/12/19 04:34:12;;;;;;;1.15;0.50;;;32.00;99.90;;;;;;5054200;28;20652;-77
2021/12/19 04:36:45;;;;;;;2.08;0.30;;;32.10;99.90;;;;;;5053659;28;20263;-77
2021/12/19 04:39:29;;;;;;;1.02;0.45;;;32.20;99.90;;;;;;5051799;28;20631;-76
2021/12/19 04:56:16;;;;;;;2.53;0.50;;;32.30;99.90;;;;;;5050879;28;20559;-81
2021/12/19 05:02:03;;;;;;;1.10;0.47;;;32.40;99.90;;;;;;5044986;28;20193;-74
2021/12/19 05:15:50;;;;;;;3.17;0.50;;;32.30;99.90;;;;;;5042731;28;20577;-76
2021/12/19 05:18:23;;;;;;;1.25;0.45;;;32.10;99.90;;;;;;5047546;28;20216;-76
2021/12/19 05:20:57;;;;;;;4.10;0.50;;;32.00;99.90;;;;;;5052419;28;20189;-76
2021/12/19 05:23:38;;;;;;;3.67;0.50;;;31.90;99.90;;;;;;5051852;28;20185;-77
2021/12/19 05:26:09;;;;;;;2.25;0.57;;;31.80;99.90;;;;;;5049735;28;20225;-76
2021/12/19 05:28:41;;;;;;;1.77;0.70;;;31.70;99.90;;;;;;5052918;28;20269;-77
2021/12/19 05:31:12;;;;;;;1.58;0.52;;;31.60;99.90;;;;;;5053533;28;20532;-76
2021/12/19 05:33:42;;;;;;;2.75;0.70;;;31.60;99.90;;;;;;5045007;28;20189;-76
2021/12/19 05:44:10;;;;;;;0.70;0.50;;;31.60;99.90;;;;;;5052408;28;20282;-76
2021/12/19 05:47:33;;;;;;;2.40;0.60;;;31.40;99.90;;;;;;5050321;28;20267;-76
2021/12/19 05:50:03;;;;;;;2.08;0.50;;;31.30;99.90;;;;;;5058645;28;20189;-76
2021/12/19 05:52:34;;;;;;;2.72;0.60;;;31.20;99.90;;;;;;5052371;28;20197;-76
2021/12/19 05:55:05;;;;;;;2.00;0.70;;;31.20;99.90;;;;;;5053072;28;20186;-75
2021/12/19 05:57:36;;;;;;;2.30;0.70;;;31.00;99.90;;;;;;5051975;28;20217;-75
2021/12/19 06:00:12;;;;;;;3.65;0.70;;;31.00;99.90;;;;;;5052332;28;20193;-74
2021/12/19 06:02:43;;;;;;;3.08;0.50;;;30.90;99.90;;;;;;5052407;28;20185;-76
2021/12/19 06:05:15;;;;;;;0.85;0.43;;;30.80;99.90;;;;;;5051952;28;20251;-76
2021/12/19 06:07:46;;;;;;;2.00;0.63;;;30.70;99.90;;;;;;5052119;28;20637;-77
2021/12/19 06:10:17;;;;;;;3.72;0.57;;;30.70;99.90;;;;;;5039832;28;20232;-76
2021/12/19 06:12:47;;;;;;;0.93;0.50;;;30.50;99.90;;;;;;5053120;28;20198;-76
2021/12/19 06:15:20;;;;;;;3.63;0.57;;;30.50;99.90;;;;;;5052009;28;20206;-76
2021/12/19 06:17:52;;;;;;;1.58;0.80;;;30.40;99.90;;;;;;5050435;28;20232;-75
2021/12/19 06:20:25;;;;;;;2.80;0.70;;;30.30;99.90;;;;;;5051404;28;20190;-76
2021/12/19 06:22:55;;;;;;;2.33;0.80;;;30.20;99.90;;;;;;5051516;28;20193;-75
2021/12/19 06:25:26;;;;;;;1.83;0.65;;;29.90;99.90;;;;;;5050829;28;20642;-76
2021/12/19 06:27:57;;;;;;;2.75;0.60;;;29.70;99.90;;;;;;5052614;28;20200;-76
2021/12/19 06:30:33;;;;;;;0.93;0.40;;;29.50;99.90;;;;;;5052282;28;20542;-77
2021/12/19 06:33:04;;;;;;;2.20;0.50;;;29.20;99.90;;;;;;5051449;28;20190;-75
2021/12/19 06:35:34;;;;;;;1.85;0.73;;;29.10;99.90;;;;;;5052085;28;20206;-74
2021/12/19 06:38:06;;;;;;;2.20;0.80;;;29.00;99.90;;;;;;5049339;28;20228;-76
2021/12/19 06:40:38;;;;;;;1.27;0.70;;;29.00;99.90;;;;;;5051581;28;20221;-75
2021/12/19 06:43:09;;;;;;;0.55;0.55;;;29.00;99.90;;;;;;5050098;28;20654;-75
2021/12/19 06:45:42;;;;;;;2.15;0.60;;;29.00;99.90;;;;;;5045544;28;20216;-76
2021/12/19 06:48:12;;;;;;;1.80;0.60;;;29.00;99.90;;;;;;5050305;28;20210;-76
2021/12/19 06:50:43;;;;;;;0.98;0.50;;;29.00;99.90;;;;;;5051212;28;20198;-76
2021/12/19 06:53:14;;;;;;;2.30;0.60;;;29.00;99.90;;;;;;5047677;28;20288;-78
2021/12/19 06:55:45;;;;;;;0.85;0.50;;;29.00;99.90;;;;;;5051946;28;20221;-75
2021/12/19 06:58:16;;;;;;;1.95;0.50;;;29.00;99.90;;;;;;5047405;28;20189;-76
2021/12/19 07:00:49;;;;;;;1.23;0.52;;;29.00;99.90;;;;;;5047988;28;20194;-78
2021/12/19 07:03:23;;;;;;;1.08;0.40;;;29.10;99.90;;;;;;5048391;28;20315;-76
2021/12/19 07:05:54;;;;;;;1.58;0.40;;;29.10;99.90;;;;;;5049887;28;20201;-75
2021/12/19 07:08:24;;;;;;;1.65;0.60;;;29.00;99.90;;;;;;5050496;28;20597;-75
2021/12/19 07:10:55;;;;;;;1.15;0.47;;;29.00;99.90;;;;;;5048459;28;20232;-76
2021/12/19 07:13:25;;;;;;;0.90;0.50;;;29.00;99.90;;;;;;5048345;28;20228;-77
2021/12/19 07:15:58;;;;;;;1.48;0.63;;;28.90;99.90;;;;;;5043410;28;20213;-78
2021/12/19 07:18:32;;;;;;;1.10;0.43;;;28.90;99.90;;;;;;5047946;28;20656;-76
2021/12/19 07:21:03;;;;;;;2.15;0.60;;;28.90;99.90;;;;;;5045262;28;20230;-75
2021/12/19 07:23:34;;;;;;;0.57;0.52;;;28.90;99.90;;;;;;5047512;28;20244;-76
2021/12/19 07:26:05;;;;;;;1.95;0.60;;;28.90;99.90;;;;;;5044079;28;20201;-75
2021/12/19 07:28:40;;;;;;;1.10;0.70;;;28.90;99.90;;;;;;5050853;28;20638;-76
2021/12/19 07:31:12;;;;;;;0.85;0.60;;;28.80;99.90;;;;;;5051635;28;20213;-76
2021/12/19 07:33:46;;;;;;;1.65;0.57;;;28.80;99.90;;;;;;5053498;28;20251;-78
2021/12/19 07:36:19;;;;;;;1.83;0.65;;;28.80;99.90;;;;;;5054835;28;20553;-78
2021/12/19 07:38:58;;;;;;;2.00;0.70;;;28.80;99.90;;;;;;5050715;28;20606;-78
2021/12/19 07:41:29;;;;;;;1.50;0.65;;;28.80;99.90;;;;;;5054995;28;20186;-77
2021/12/19 07:44:00;;;;;;;1.23;0.50;;;28.80;99.90;;;;;;5056591;28;20193;-77
2021/12/19 07:46:32;;;;;;;3.40;0.70;;;28.70;99.90;;;;;;5054769;28;20201;-78
2021/12/19 07:49:03;;;;;;;1.73;0.70;;;28.30;99.90;;;;;;5054903;28;20193;-77
2021/12/19 07:51:33;;;;;;;3.10;0.73;;;27.60;99.90;;;;;;5050119;28;20208;-77
2021/12/19 07:54:04;;;;;;;2.13;0.85;;;27.20;99.90;;;;;;5044036;28;20210;-77
2021/12/19 07:56:35;;;;;;;1.35;0.70;;;27.00;99.90;;;;;;5050729;28;20634;-77
2021/12/19 07:59:06;;;;;;;4.00;0.93;;;26.80;99.90;;;;;;5049065;28;20577;-77
2021/12/19 08:01:39;;;;;;;1.02;0.82;;;26.70;99.90;;;;;;5051927;28;20627;-78
2021/12/19 08:04:09;;;;;;;2.55;1.00;;;26.70;99.90;;;;;;5051594;28;20226;-77
2021/12/19 08:06:40;;;;;;;2.50;1.00;;;26.70;99.90;;;;;;5054676;28;20197;-77
2021/12/19 08:09:21;;;;;;;2.08;0.95;;;26.60;99.90;;;;;;5056212;28;20225;-77
2021/12/19 08:11:52;;;;;;;3.60;0.90;;;26.60;99.90;;;;;;5053732;28;20736;-77
2021/12/19 08:14:22;;;;;;;1.33;0.77;;;26.60;99.90;;;;;;5054673;28;20200;-77
2021/12/19 08:16:55;;;;;;;1.73;0.88;;;26.60;99.90;;;;;;5051564;28;20214;-78
2021/12/19 08:19:26;;;;;;;1.27;0.70;;;26.50;99.90;;;;;;5053102;28;20645;-77
2021/12/19 08:21:56;;;;;;;1.45;0.57;;;26.60;99.90;;;;;;5053934;28;20548;-78
2021/12/19 08:24:27;;;;;;;1.45;0.60;;;26.60;99.90;;;;;;5053738;28;20204;-77
2021/12/19 08:26:58;;;;;;;0.52;0.35;;;26.70;99.90;;;;;;5053711;28;20225;-77
2021/12/19 08:29:28;;;;;;;1.25;0.50;;;26.80;99.90;;;;;;5054965;28;20186;-77
2021/12/19 08:32:01;;;;;;;1.65;0.52;;;26.80;99.90;;;;;;5053674;28;20190;-77
2021/12/19 08:34:31;;;;;;;1.27;0.47;;;26.60;99.90;;;;;;5054341;28;20190;-77
2021/12/19 08:37:02;;;;;;;1.05;0.55;;;26.50;99.90;;;;;;5054996;28;20216;-77
2021/12/19 08:39:33;;;;;;;1.65;0.60;;;26.40;99.90;;;;;;5052005;28;20202;-77
2021/12/19 08:42:06;;;;;;;1.30;0.63;;;26.40;99.90;;;;;;5054027;28;20229;-77
2021/12/19 08:44:37;;;;;;;2.72;0.65;;;26.30;99.90;;;;;;5054170;28;20190;-77
2021/12/19 08:47:12;;;;;;;1.52;0.70;;;26.20;99.90;;;;;;5054111;28;20185;-77
2021/12/19 08:49:43;;;;;;;0.60;0.60;;;26.20;99.90;;;;;;5053569;28;20185;-74
2021/12/19 08:52:14;;;;;;;1.63;0.70;;;26.10;99.90;;;;;;5055807;28;20201;-75
2021/12/19 08:54:45;;;;;;;0.55;0.50;;;26.00;99.90;;;;;;5054000;28;20248;-75
2021/12/19 08:57:18;;;;;;;0.85;0.68;;;25.90;99.90;;;;;;5055616;28;20209;-76
2021/12/19 08:59:49;;;;;;;0.75;0.68;;;25.90;99.90;;;;;;5060309;28;20189;-75
2021/12/19 09:02:22;;;;;;;1.40;0.80;;;25.80;99.90;;;;;;5052885;28;20205;-74
2021/12/19 09:04:53;;;;;;;1.83;0.60;;;25.80;99.90;;;;;;5053659;28;20198;-76
2021/12/19 09:07:23;;;;;;;1.67;0.70;;;25.70;99.90;;;;;;5053565;28;20198;-76
2021/12/19 09:09:54;;;;;;;1.33;0.70;;;25.70;99.90;;;;;;5052825;28;20229;-77
2021/12/19 09:12:25;;;;;;;2.20;0.60;;;25.60;99.90;;;;;;5053768;28;20194;-76
2021/12/19 09:14:56;;;;;;;3.13;0.80;;;25.60;99.90;;;;;;5053808;28;20573;-77
2021/12/19 09:17:28;;;;;;;1.58;0.60;;;25.40;99.90;;;;;;5053459;28;20272;-77
2021/12/19 09:19:59;;;;;;;1.25;0.63;;;25.40;99.90;;;;;;5053502;28;20193;-77
2021/12/19 09:22:30;;;;;;;2.20;0.50;;;25.30;99.90;;;;;;5053339;28;20649;-76
2021/12/19 09:25:00;;;;;;;2.67;0.60;;;25.30;99.90;;;;;;5049103;28;20699;-76
2021/12/19 09:27:31;;;;;;;2.60;0.93;;;25.30;99.90;;;;;;5053596;28;20193;-76
2021/12/19 09:30:02;;;;;;;1.20;0.80;;;25.20;99.90;;;;;;5053258;28;20197;-75
2021/12/19 09:32:35;;;;;;;1.75;0.60;;;25.10;99.90;;;;;;5057429;28;20189;-75
2021/12/19 09:35:05;;;;;;;1.17;0.60;;;25.10;99.90;;;;;;5049931;28;20190;-75
2021/12/19 09:37:37;;;;;;;1.00;0.55;;;25.10;99.90;;;;;;5053166;28;20217;-76
2021/12/19 09:40:09;;;;;;;1.40;0.50;;;25.10;99.90;;;;;;5053010;28;20225;-76
2021/12/19 09:42:47;;;;;;;2.25;0.60;;;25.00;99.90;;;;;;5053123;28;20198;-76
2021/12/19 09:45:18;;;;;;;0.68;0.50;;;25.00;99.90;;;;;;5053490;28;20268;-75
2021/12/19 09:47:50;;;;;;;0.77;0.50;;;25.00;99.90;;;;;;5053249;28;20197;-75
2021/12/19 09:50:21;;;;;;;0.68;0.50;;;25.00;99.90;;;;;;5052316;28;20608;-76
2021/12/19 09:52:52;;;;;;;1.58;0.60;;;25.00;99.90;;;;;;5052496;28;20186;-76
2021/12/19 09:55:23;;;;;;;1.08;0.60;;;24.90;99.90;;;;;;5049893;28;20521;-76
2021/12/19 09:57:55;;;;;;;3.03;0.60;;;24.90;99.90;;;;;;5045119;28;20545;-76
2021/12/19 10:00:26;;;;;;;0.63;0.47;;;24.80;99.90;;;;;;5052821;28;20193;-76
2021/12/19 10:02:58;;;;;;;1.08;0.60;;;24.80;99.90;;;;;;5049639;28;20221;-76
2021/12/19 10:05:30;;;;;;;1.00;0.50;;;24.80;99.90;;;;;;5049989;28;20186;-76
2021/12/19 10:08:02;;;;;;;2.90;0.50;;;24.80;99.90;;;;;;5052206;28;20186;-76
2021/12/19 10:10:46;;;;;;;1.15;0.50;;;24.80;99.90;;;;;;5052728;28;20236;-76
2021/12/19 10:13:18;;;;;;;1.98;0.50;;;24.80;99.90;;;;;;5053054;28;20196;-77
2021/12/19 10:15:49;;;;;;;0.55;0.55;;;24.70;99.90;;;;;;5051963;28;20243;-77
2021/12/19 10:18:21;;;;;;;0.88;0.60;;;24.60;99.90;;;;;;5051974;28;20268;-76
2021/12/19 10:20:53;;;;;;;1.50;0.50;;;24.60;99.90;;;;;;5052443;28;20189;-76
2021/12/19 10:23:26;;;;;;;0.70;0.70;;;24.60;99.90;;;;;;5052924;28;20185;-76
2021/12/19 10:26:01;;;;;;;1.25;0.60;;;24.60;99.90;;;;;;5052552;28;20251;-76
2021/12/19 10:28:32;;;;;;;0.75;0.60;;;24.50;99.90;;;;;;5052773;28;20229;-76
2021/12/19 10:31:05;;;;;;;0.77;0.47;;;24.50;99.90;;;;;;5052591;28;20977;-76
2021/12/19 10:33:38;;;;;;;0.93;0.40;;;24.50;99.90;;;;;;5051579;28;20209;-75
2021/12/19 10:36:10;;;;;;;1.95;0.50;;;24.50;99.90;;;;;;5051489;28;20182;-76
2021/12/19 10:38:44;;;;;;;2.67;0.47;;;24.50;99.90;;;;;;5051608;28;20908;-76
2021/12/19 10:41:17;;;;;;;1.30;0.55;;;24.50;99.90;;;;;;5049194;28;20598;-76
2021/12/19 10:43:56;;;;;;;0.88;0.52;;;24.40;99.90;;;;;;5052193;28;20653;-76
2021/12/19 10:46:31;;;;;;;1.73;0.50;;;24.40;99.90;;;;;;5047061;28;20189;-76
2021/12/19 10:49:05;;;;;;;0.70;0.50;;;24.40;99.90;;;;;;5052424;28;20197;-76
2021/12/19 10:51:40;;;;;;;0.50;0.50;;;24.30;99.90;;;;;;5052194;28;20649;-76
2021/12/19 10:54:11;;;;;;;1.02;0.60;;;24.30;99.90;;;;;;5052203;28;20560;-76
2021/12/19 10:56:42;;;;;;;0.88;0.60;;;24.30;99.90;;;;;;5051419;28;20190;-75
2021/12/19 10:59:16;;;;;;;1.73;0.68;;;24.30;99.90;;;;;;5050506;28;20665;-76
2021/12/19 11:01:48;;;;;;;1.25;0.65;;;24.20;99.90;;;;;;5052184;28;20190;-76
2021/12/19 11:04:22;;;;;;;1.38;0.63;;;24.20;99.90;;;;;;5051019;28;20205;-76
2021/12/19 11:06:54;;;;;;;0.65;0.50;;;24.20;99.90;;;;;;5049769;28;20267;-76
2021/12/19 11:09:26;;;;;;;2.03;0.65;;;24.10;99.90;;;;;;5055626;28;20233;-76
2021/12/19 11:11:58;;;;;;;0.88;0.50;;;24.10;99.90;;;;;;5055830;28;20186;-76
2021/12/19 11:14:31;;;;;;;2.58;0.50;;;24.10;99.90;;;;;;5055300;28;20299;-76
2021/12/19 11:17:04;;;;;;;1.27;0.60;;;24.00;99.90;;;;;;5054561;28;20689;-76
2021/12/19 11:19:38;;;;;;;1.00;0.50;;;24.00;99.90;;;;;;5056108;28;20185;-75
2021/12/19 11:22:08;;;;;;;1.48;0.60;;;24.00;99.90;;;;;;5055896;28;20186;-75
2021/12/19 11:24:39;;;;;;;2.20;0.65;;;24.00;99.90;;;;;;5048543;28;20186;-76
2021/12/19 11:27:11;;;;;;;0.93;0.60;;;23.90;99.90;;;;;;5054953;28;20193;-75
2021/12/19 11:29:44;;;;;;;1.48;0.50;;;23.90;99.90;;;;;;5053077;28;20703;-76
2021/12/19 11:32:19;;;;;;;1.23;0.60;;;23.90;99.90;;;;;;5055595;28;20190;-75
2021/12/19 11:35:01;;;;;;;1.50;0.60;;;23.90;99.90;;;;;;5052682;28;20553;-75
2021/12/19 11:37:35;;;;;;;1.42;0.60;;;23.80;99.90;;;;;;5055302;28;20209;-75
2021/12/19 11:40:09;;;;;;;0.85;0.60;;;23.80;99.90;;;;;;5055334;28;20214;-76
2021/12/19 11:42:41;;;;;;;0.95;0.55;;;23.80;99.90;;;;;;5055481;28;20642;-75
2021/12/19 11:45:35;;;;;;;1.58;0.50;;;23.80;99.90;;;;;;5054728;28;20196;-75
2021/12/19 11:48:22;;;;;;;2.65;0.50;;;23.80;99.90;;;;;;5060192;28;20258;-75
2021/12/19 11:50:56;;;;;;;1.35;0.50;;;23.70;99.90;;;;;;5056685;28;20200;-75
2021/12/19 11:53:32;;;;;;;0.50;0.50;;;23.70;99.90;;;;;;5054059;28;20193;-75
2021/12/19 11:56:11;;;;;;;1.48;0.65;;;23.70;99.90;;;;;;5054134;28;20193;-74
2021/12/19 11:58:49;;;;;;;0.63;0.52;;;23.60;99.90;;;;;;5052350;28;20213;-75
2021/12/19 12:01:25;;;;;;;0.75;0.60;;;23.60;99.90;;;;;;5054672;28;20216;-75
2021/12/19 12:03:58;;;;;;;1.10;0.70;;;23.60;99.90;;;;;;5051317;28;20221;-75
2021/12/19 12:06:38;;;;;;;2.03;0.70;;;23.60;99.90;;;;;;5054658;28;20194;-75
2021/12/19 12:09:28;;;;;;;1.65;0.73;;;23.60;99.90;;;;;;5053937;28;20232;-75
2021/12/19 12:12:23;;;;;;;1.65;0.40;;;23.50;99.90;;;;;;5054280;28;20641;-74
2021/12/19 12:15:08;;;;;;;0.47;0.43;;;23.50;99.90;;;;;;5053137;28;20602;-76
2021/12/19 12:17:52;;;;;;;1.40;0.60;;;23.50;99.90;;;;;;5053960;28;20692;-75
2021/12/19 12:20:30;;;;;;;0.77;0.50;;;23.40;99.90;;;;;;5054273;28;20182;-75
2021/12/19 12:23:10;;;;;;;1.52;0.70;;;23.30;99.90;;;;;;5054070;28;20221;-75
2021/12/19 12:25:43;;;;;;;2.05;0.68;;;23.30;99.90;;;;;;5050955;28;20247;-75
2021/12/19 12:28:16;;;;;;;0.98;0.60;;;23.30;99.90;;;;;;5052244;28;20247;-75
2021/12/19 12:30:48;;;;;;;1.00;0.60;;;23.30;99.90;;;;;;5054729;28;20193;-75
2021/12/19 12:33:21;;;;;;;1.70;0.63;;;23.30;99.90;;;;;;5054140;28;20198;-75
2021/12/19 12:35:54;;;;;;;1.50;0.65;;;23.30;99.90;;;;;;5054134;28;20190;-75
2021/12/19 12:38:27;;;;;;;1.55;0.70;;;23.20;99.90;;;;;;5054986;28;20568;-75
2021/12/19 12:41:04;;;;;;;1.58;0.80;;;23.20;99.90;;;;;;5054062;28;20188;-75
2021/12/19 12:43:35;;;;;;;1.10;0.70;;;23.20;99.90;;;;;;5054877;28;20187;-75
2021/12/19 12:46:11;;;;;;;0.98;0.57;;;23.20;99.90;;;;;;5052664;28;20205;-76
2021/12/19 12:48:45;;;;;;;1.92;0.60;;;23.10;99.90;;;;;;5054418;28;20665;-75
2021/12/19 12:51:21;;;;;;;1.35;0.50;;;23.10;99.90;;;;;;5056148;28;20220;-75
2021/12/19 12:53:56;;;;;;;0.85;0.52;;;23.10;99.90;;;;;;5053901;28;20200;-75
2021/12/19 12:56:31;;;;;;;0.90;0.65;;;23.00;99.90;;;;;;5046389;28;20205;-75
2021/12/19 12:59:02;;;;;;;1.10;0.60;;;23.00;99.90;;;;;;5052430;28;20267;-75
2021/12/19 13:01:38;;;;;;;1.30;0.63;;;23.00;99.90;;;;;;5053701;28;20186;-75
2021/12/19 13:04:17;;;;;;;1.45;0.68;;;23.00;99.90;;;;;;5054079;28;20247;-75
2021/12/19 13:06:53;;;;;;;1.23;0.60;;;23.00;99.90;;;;;;5054024;28;20185;-75
2021/12/19 13:09:29;;;;;;;1.15;0.60;;;23.00;99.90;;;;;;5053591;28;20233;-75
2021/12/19 13:12:21;;;;;;;1.08;0.60;;;22.90;99.90;;;;;;5053091;28;20193;-75
2021/12/19 13:14:53;;;;;;;1.17;0.77;;;23.00;99.90;;;;;;5050019;28;20654;-75
2021/12/19 13:17:25;;;;;;;2.97;0.77;;;22.90;99.90;;;;;;5053224;28;20193;-75
2021/12/19 13:19:58;;;;;;;2.97;0.80;;;22.90;99.90;;;;;;5053608;28;20255;-75
2021/12/19 13:22:35;;;;;;;1.55;0.70;;;22.90;99.90;;;;;;5054153;28;20212;-76
2021/12/19 13:25:11;;;;;;;2.38;0.50;;;22.80;99.90;;;;;;5053704;28;20196;-75
2021/12/19 13:27:44;;;;;;;1.35;0.60;;;22.80;99.90;;;;;;5046654;28;20696;-75
2021/12/19 13:30:20;;;;;;;1.50;0.60;;;22.80;99.90;;;;;;5052684;28;20194;-75
2021/12/19 13:32:53;;;;;;;2.00;0.70;;;22.80;99.90;;;;;;5053779;28;20194;-75
2021/12/19 13:35:30;;;;;;;0.90;0.65;;;22.80;99.90;;;;;;5053356;28;20201;-75
2021/12/19 13:38:07;;;;;;;2.75;0.70;;;22.80;99.90;;;;;;5053646;28;20214;-75
2021/12/19 13:40:40;;;;;;;1.98;0.73;;;22.70;99.90;;;;;;5045270;28;20235;-75
2021/12/19 13:43:13;;;;;;;0.85;0.55;;;22.70;99.90;;;;;;5052855;28;20189;-76
2021/12/19 13:45:51;;;;;;;1.42;0.60;;;22.70;99.90;;;;;;5053128;28;20181;-75
2021/12/19 13:48:29;;;;;;;0.82;0.50;;;22.60;99.90;;;;;;5052693;28;20219;-75
2021/12/19 13:51:07;;;;;;;1.73;0.70;;;22.60;99.90;;;;;;5053340;28;20228;-75
2021/12/19 13:53:39;;;;;;;2.78;0.70;;;22.70;99.90;;;;;;5053023;28;20221;-75
2021/12/19 13:56:13;;;;;;;2.03;0.70;;;22.60;99.90;;;;;;5052399;28;20190;-75
2021/12/19 13:58:44;;;;;;;1.40;0.55;;;22.60;99.90;;;;;;5045330;28;20209;-75
2021/12/19 14:01:18;;;;;;;0.77;0.60;;;22.60;99.90;;;;;;5052411;28;20198;-75
2021/12/19 14:03:50;;;;;;;1.75;0.80;;;22.60;99.90;;;;;;5050742;28;20276;-75
2021/12/19 14:06:29;;;;;;;0.95;0.60;;;22.60;99.90;;;;;;5052538;28;20189;-75
2021/12/19 14:09:00;;;;;;;1.52;0.50;;;22.60;99.90;;;;;;5052860;28;20303;-76